Αρχική σελίδα
METAR-TAF:

METAR-TAF

Αεροδρόμια :

Αμμάν, Ιορδανία

γεωγραφικό πλάτος: 31-59N, γεωγραφικό μήκος: 035-59E, υψόμετρο: 767 μ

Παρών καιρός

Η αναφορά έγινε 27 λεπτά πριν, στις 18:00 UTC
Άνεμος 4 kt από Α/NA
Θερμοκρασία 17°C
Υγρασία 52%
Πίεση 1020 hPa
Ορατότητα: 6000 μ

METAR: OJAM 181800Z 12004KT 6000 NSC 17/07 Q1020 NOSIG

Χρόνος: 20:27 (18:27 UTC)

Πρόγνωση Καιρού

Η αναφορά έγινε 1 ώρα και 27 λεπτά πριν, στις 17:00 UTC
Η πρόγνωση ισχύει από τις 18 στις 18 UTC έως τις 19 στις 24 UTC
Άνεμος 8 kt από Α/NA
Ορατότητα: 5000 μ
καταχνιά
Πιθανότητα 40% :
Προσωρινά
από 18 στις 22 UTC έως τις 19 στις 06 UTC
Ορατότητα: 4000 μ
Λίγα νέφη σε ύψος 3000 πόδια
Διάσπαρτα νέφη σε ύψος 8000 πόδια
Ασθενής βροχή

TAF: OJAM 181700Z 1818/1924 12008KT 5000 HZ NSC PROB40 TEMPO 1822/1906 4000 -RA FEW030 SCT080

Μετεωρολογικές αναφορές και προγνώσεις για περισσότερα από 4000 αεροδρόμια (δελτία METAR και TAF).

Οι διαθέσιμοι σταθμοί απεικονίζονται στο χάρτη με κίτρινες και κόκκινες κουκκίδες.

Μετακινήστε το ποντίκι πάνω από τις κουκκίδες για να δείτε το όνομα του σταθμού.

Στη συνέχεια, κάντε κλικ για να δείτε τις μετεωρολογικές αναφορές και τις προγνώσεις καιρού.

Για να αλλάξετε το χάρτη: κάντε κλικ στα πράσινα κουμπιά με τον μαύρο σταυρό για να ζουμάρετε, στο πράσινο κουμπί με την παύλα για να αφαιρέσετε το ζουμ ή στα πράσινα βέλη για να αντιπαραβάλλετε χάρτες.


METAR-TAF: